Canehill, AR (72717)

8:20 AM CDT on October 23, 2014 (GMT -0500)
KARPRAIR2 | Change Station
CLOSE
Current Station
Personal Weather Station
Location: Prairie Grove, AR
Elevation: 1385 ft
Nearby Weather Stations

Elev 1385 ft 35.93 °N, 94.33 °W | Updated 13 minutes ago

Overcast
Overcast
54.9 °F
Feels Like 54.9 °F
N
2.0
Wind Variable Wind from SW
Gusts 3.0 mph

Today
High -- | Low -- °F
--% Chance of Precip.
Yesterday
High -- | Low -- °F
Precip. -- in
7:31 AM 6:31 PM
Waning Crescent, 0% visible
Pressure 30.17 in
Visibility 10.0 miles
Clouds Few 12000 ft
Dew Point 46 °F
Humidity 71%
Rainfall 0.00 in
Snow Depth Not available.
UV 0 out of 12
Pollen 3.70 out of 12
Air Quality Not available.
Flu Activity Sporadic
METAR KFYV 231253Z 11003KT 10SM FEW120 11/10 A3017 RMK AO2 SLP214 T01110100

More Conditions Fewer Conditions

Pressure 30.17 in
Visibility 10.0 miles
Clouds Few 12000 ft
Dew Point 46 °F
Humidity 71%
Rainfall 0.00 in
Snow Depth Not available.
UV 0 out of 12
Pollen 3.70 out of 12
Air Quality Not available.
Flu Activity Sporadic
METAR KFYV 231253Z 11003KT 10SM FEW120 11/10 A3017 RMK AO2 SLP214 T01110100

More Conditions Fewer Conditions

Nowcast | as of 6:45 am CDT on October 23, 2014

At 6:45 am...National Weather Service Doppler radar indicated scattered areas of light rain across parts of eastern Oklahoma. The rain was moving east at 25 miles an hour. Through 9 am...scattered areas of light rain will continue to move across eastern Oklahoma and may begin to affect far western Arkansas as well. The rain will begin to taper off across parts of Osage and Pawnee counties. Rainfall amounts will generally be less than a tenth of an inch.

×

10-Day Weather Forecast

Almanac

Astronomy

Oct. 23, 2014 Rise Set
Actual Time 7:31 AM CDT 6:31 PM CDT
Civil Twilight 7:05 AM CDT 6:57 PM CDT
Nautical Twilight 6:35 AM CDT 7:27 PM CDT
Astronomical Twilight 6:05 AM CDT 7:57 PM CDT
Moon 7:12 AM CDT 6:33 PM CDT
Length of Visible Light 11h 52m
Length of Day
11h 00m
Tomorrow will be 2m 6s shorter.
Waning Crescent, 0% of the Moon is Illuminated
Today
Waning Crescent
Oct 23
New
Oct 30
First Quarter
Nov 6
Full
Nov 14
Last Quarter

Today's Extremes

State Highs State Lows

Community

WunderPhotos

Upload Photos

1,764,231 photos uploaded!

Nearby

Snow Depth

Station Depth Elevation
No new snow has been reported.

Earthquake Activity

City Distance Mag. Time & Date
No recent earthquake activity has been reported nearby.
Minimum magnitude displayed is 2.5.

Coastal Water Temperatures

Place Temperature
No Stations Reporting

Nearby Weather Stations